Time;durP1;ratioP1;P1;durP2;ratioP2;P2;SDS_P1;SDS_P2;PMS_P1;PMS_P2;Temp;Humidity;BMP_temperature;BMP_pressure;BME280_temperature;BME280_humidity;BME280_pressure;Samples;Min_cycle;Max_cycle;Signal;HPM_P1;HPM_P2
2022/01/30 00:01:20;;;;;;;12.43;1.70;;;6.30;99.90;;;;;;5118069;27;20050;-83
2022/01/30 00:03:46;;;;;;;13.00;2.92;;;6.30;99.90;;;;;;5118274;27;20035;-83
2022/01/30 00:06:11;;;;;;;9.43;2.10;;;6.30;99.90;;;;;;5100943;27;20708;-83
2022/01/30 00:08:37;;;;;;;12.15;2.63;;;6.90;99.90;;;;;;5101238;27;20034;-84
2022/01/30 00:11:11;;;;;;;9.00;1.88;;;6.10;99.90;;;;;;5101042;27;20041;-83
2022/01/30 00:13:37;;;;;;;7.63;2.00;;;5.90;99.90;;;;;;5097490;28;20173;-84
2022/01/30 00:16:09;;;;;;;4.10;1.55;;;5.90;99.90;;;;;;5097128;28;20069;-84
2022/01/30 00:21:08;;;;;;;4.82;1.70;;;5.70;99.90;;;;;;5097209;28;20047;-84
2022/01/30 00:23:37;;;;;;;7.85;2.47;;;5.70;99.90;;;;;;5082142;27;20081;-83
2022/01/30 00:26:07;;;;;;;16.58;1.88;;;5.60;99.90;;;;;;5117301;27;20039;-84
2022/01/30 00:28:33;;;;;;;18.33;2.95;;;5.50;99.90;;;;;;5100903;27;20050;-83
2022/01/30 00:30:59;;;;;;;6.30;2.22;;;5.40;99.90;;;;;;5100480;27;20035;-83
2022/01/30 00:33:26;;;;;;;9.98;1.95;;;5.50;99.90;;;;;;5135121;27;20051;-83
2022/01/30 00:35:52;;;;;;;6.47;1.75;;;5.40;99.90;;;;;;5100517;27;20088;-84
2022/01/30 00:38:22;;;;;;;8.07;2.25;;;5.50;99.90;;;;;;5100257;27;20054;-84
2022/01/30 00:40:51;;;;;;;6.72;1.20;;;5.40;99.90;;;;;;5100737;27;20039;-84
2022/01/30 00:43:18;;;;;;;4.93;1.63;;;5.40;99.90;;;;;;5117229;27;20459;-83
2022/01/30 00:45:45;;;;;;;24.17;1.83;;;5.40;99.90;;;;;;5100214;27;20081;-84
2022/01/30 00:48:11;;;;;;;4.05;1.15;;;5.40;99.90;;;;;;5099603;27;20046;-84
2022/01/30 00:50:37;;;;;;;12.10;2.90;;;5.30;99.90;;;;;;5100060;27;20083;-84
2022/01/30 00:53:03;;;;;;;14.13;2.70;;;5.30;99.90;;;;;;5100548;27;20428;-84
2022/01/30 00:55:30;;;;;;;13.77;3.50;;;5.40;99.90;;;;;;5100096;27;20031;-84
2022/01/30 00:57:58;;;;;;;4.72;1.75;;;5.60;99.90;;;;;;5099696;27;20044;-83
2022/01/30 01:00:26;;;;;;;17.42;4.65;;;5.70;99.90;;;;;;5100057;27;20039;-84
2022/01/30 01:02:52;;;;;;;15.38;2.42;;;5.90;99.90;;;;;;5083280;27;20039;-84
2022/01/30 01:05:19;;;;;;;5.25;1.92;;;5.90;99.90;;;;;;5082904;27;20031;-83
2022/01/30 01:07:47;;;;;;;7.03;1.63;;;6.00;99.90;;;;;;5099374;27;20035;-83
2022/01/30 01:10:26;;;;;;;7.47;1.75;;;6.00;99.90;;;;;;5099758;27;20035;-83
2022/01/30 01:23:34;;;;;;;8.18;1.70;;;5.90;99.90;;;;;;5116803;27;20474;-83
2022/01/30 01:26:00;;;;;;;8.23;1.63;;;5.90;99.90;;;;;;5116423;27;20039;-83
2022/01/30 01:28:27;;;;;;;3.95;1.50;;;5.80;99.90;;;;;;5116475;27;20043;-83
2022/01/30 01:30:54;;;;;;;6.43;1.90;;;5.70;99.90;;;;;;5116408;27;20039;-83
2022/01/30 01:33:20;;;;;;;8.63;1.52;;;5.70;99.90;;;;;;5082608;27;20043;-84
2022/01/30 01:35:46;;;;;;;4.00;1.35;;;5.70;99.90;;;;;;5099324;27;20035;-83
2022/01/30 01:38:14;;;;;;;3.72;1.10;;;5.60;99.90;;;;;;5099091;27;20042;-83
2022/01/30 01:40:43;;;;;;;15.30;2.10;;;5.60;99.90;;;;;;5116080;27;20043;-83
2022/01/30 01:43:08;;;;;;;7.90;1.27;;;5.60;99.90;;;;;;5082930;27;20035;-83
2022/01/30 01:45:38;;;;;;;6.35;1.30;;;5.50;99.90;;;;;;5099535;27;20588;-83
2022/01/30 01:48:12;;;;;;;14.73;2.05;;;5.50;99.90;;;;;;5098784;27;20034;-84
2022/01/30 01:50:39;;;;;;;9.60;1.92;;;5.50;99.90;;;;;;5099292;27;20028;-83
2022/01/30 01:53:07;;;;;;;5.90;1.83;;;5.50;99.90;;;;;;5082373;27;20464;-83
2022/01/30 01:55:33;;;;;;;3.65;1.13;;;5.50;99.90;;;;;;5115664;27;20400;-84
2022/01/30 01:57:58;;;;;;;6.75;2.03;;;5.50;99.90;;;;;;5098622;27;20031;-84
2022/01/30 02:00:24;;;;;;;8.95;1.67;;;5.40;99.90;;;;;;5098472;27;20456;-83
2022/01/30 02:02:49;;;;;;;6.97;2.22;;;5.40;99.90;;;;;;5099021;27;20164;-83
2022/01/30 02:05:16;;;;;;;17.33;2.58;;;5.40;99.90;;;;;;5099209;27;20027;-83
2022/01/30 02:10:20;;;;;;;11.05;2.47;;;5.40;99.90;;;;;;5115615;27;20496;-83
2022/01/30 02:12:50;;;;;;;10.68;1.92;;;5.50;99.90;;;;;;5079742;28;20112;-83
2022/01/30 02:26:01;;;;;;;7.25;2.15;;;5.60;99.90;;;;;;5095141;28;20101;-84
2022/01/30 02:28:29;;;;;;;13.38;1.73;;;5.60;99.90;;;;;;5095364;28;20396;-83
2022/01/30 02:31:01;;;;;;;12.32;2.63;;;5.50;99.90;;;;;;5095489;28;20126;-84
2022/01/30 02:33:27;;;;;;;12.95;3.08;;;5.50;99.90;;;;;;5079459;28;20032;-83
2022/01/30 02:35:53;;;;;;;6.85;1.88;;;5.50;99.90;;;;;;5095424;28;20043;-83
2022/01/30 02:38:24;;;;;;;9.45;2.03;;;5.50;99.90;;;;;;5077871;28;20040;-84
2022/01/30 02:40:52;;;;;;;16.48;1.58;;;5.60;99.90;;;;;;5095148;28;20036;-83
2022/01/30 02:43:22;;;;;;;9.43;2.40;;;5.60;99.90;;;;;;5098401;28;20057;-83
2022/01/30 02:46:01;;;;;;;7.43;1.58;;;5.60;99.90;;;;;;5115823;28;20104;-84
2022/01/30 02:48:34;;;;;;;6.35;1.45;;;5.60;99.90;;;;;;5098686;28;20471;-83
2022/01/30 02:51:11;;;;;;;4.72;1.80;;;5.60;99.90;;;;;;5098601;28;20043;-83
2022/01/30 02:53:42;;;;;;;7.85;2.03;;;5.60;99.90;;;;;;5115549;28;20039;-83
2022/01/30 02:56:07;;;;;;;5.35;1.15;;;5.60;99.90;;;;;;5115004;28;20039;-83
2022/01/30 02:58:33;;;;;;;11.23;2.30;;;5.60;99.90;;;;;;5115644;28;20061;-84
2022/01/30 03:00:59;;;;;;;5.85;1.52;;;5.60;99.90;;;;;;5115264;28;20043;-84
2022/01/30 03:03:24;;;;;;;9.07;1.50;;;5.50;99.90;;;;;;5098383;28;20460;-83
2022/01/30 03:05:50;;;;;;;8.80;2.85;;;5.50;99.90;;;;;;5098281;28;20030;-83
2022/01/30 03:08:16;;;;;;;7.80;2.92;;;5.60;99.90;;;;;;5097960;28;20422;-83
2022/01/30 03:10:41;;;;;;;5.63;1.50;;;5.60;99.90;;;;;;5115164;27;20031;-83
2022/01/30 03:13:07;;;;;;;18.42;1.50;;;5.60;99.90;;;;;;5100893;27;20035;-83
2022/01/30 03:15:33;;;;;;;15.77;4.15;;;5.50;99.90;;;;;;5119476;27;20499;-84
2022/01/30 03:17:58;;;;;;;4.20;1.60;;;5.50;99.90;;;;;;5118635;27;20031;-83
2022/01/30 03:20:24;;;;;;;18.33;2.58;;;5.50;99.90;;;;;;5102037;27;20046;-83
2022/01/30 03:22:50;;;;;;;8.75;1.85;;;5.50;99.90;;;;;;5101875;27;20539;-84
2022/01/30 03:25:15;;;;;;;10.45;2.03;;;5.50;99.90;;;;;;5118891;27;20039;-84
2022/01/30 03:27:44;;;;;;;8.38;1.30;;;5.60;99.90;;;;;;5118736;27;20503;-83
2022/01/30 03:30:15;;;;;;;15.07;3.05;;;5.60;99.90;;;;;;5101926;27;20522;-84
2022/01/30 03:32:41;;;;;;;13.80;2.25;;;5.60;99.90;;;;;;5101811;27;20050;-83
2022/01/30 03:35:07;;;;;;;6.30;2.00;;;5.50;99.90;;;;;;5101657;27;20047;-84
2022/01/30 03:37:32;;;;;;;6.78;1.77;;;5.50;99.90;;;;;;5101554;27;20399;-84
2022/01/30 03:39:58;;;;;;;6.05;1.52;;;5.50;99.90;;;;;;5101439;27;20039;-83
2022/01/30 03:42:23;;;;;;;9.00;2.08;;;5.40;99.90;;;;;;5118362;27;20122;-84
2022/01/30 03:44:49;;;;;;;12.38;2.10;;;5.40;99.90;;;;;;5118738;27;20080;-83
2022/01/30 03:47:15;;;;;;;23.25;4.82;;;5.40;99.90;;;;;;5101076;27;20043;-83
2022/01/30 03:49:40;;;;;;;12.35;2.17;;;5.30;99.90;;;;;;5101516;27;20043;-84
2022/01/30 03:52:07;;;;;;;5.72;1.35;;;5.30;99.90;;;;;;5101383;27;20039;-84
2022/01/30 03:54:34;;;;;;;13.27;2.53;;;5.20;99.90;;;;;;5101069;27;20039;-83
2022/01/30 03:57:00;;;;;;;6.75;1.35;;;5.10;99.90;;;;;;5101109;27;20685;-83
2022/01/30 03:59:26;;;;;;;9.98;1.80;;;5.10;99.90;;;;;;5101266;27;20042;-84
2022/01/30 04:01:52;;;;;;;4.40;1.52;;;5.10;99.90;;;;;;5101090;27;20054;-83
2022/01/30 04:04:17;;;;;;;6.20;1.70;;;5.10;99.90;;;;;;5101174;27;20480;-83
2022/01/30 04:06:43;;;;;;;5.70;1.20;;;5.20;99.90;;;;;;5100835;27;20035;-83
2022/01/30 04:09:09;;;;;;;8.68;2.70;;;5.20;99.90;;;;;;5100994;27;20035;-83
2022/01/30 04:11:35;;;;;;;17.75;3.80;;;5.20;99.90;;;;;;5118091;27;20043;-83
2022/01/30 04:14:01;;;;;;;8.70;2.13;;;5.40;99.90;;;;;;5101151;27;20039;-84
2022/01/30 04:16:27;;;;;;;6.53;1.40;;;5.30;99.90;;;;;;5117644;27;20035;-83
2022/01/30 04:18:57;;;;;;;7.15;1.58;;;5.30;99.90;;;;;;5101300;27;20035;-83
2022/01/30 04:21:23;;;;;;;14.32;2.40;;;5.30;99.90;;;;;;5117679;27;20039;-84
2022/01/30 04:23:50;;;;;;;9.68;2.65;;;5.30;99.90;;;;;;5117234;27;20039;-83
2022/01/30 04:26:48;;;;;;;4.55;1.23;;;5.30;99.90;;;;;;5117388;27;20042;-83
2022/01/30 04:29:14;;;;;;;9.27;1.73;;;5.20;99.90;;;;;;5100754;27;20035;-84
2022/01/30 04:31:42;;;;;;;13.63;2.55;;;5.20;99.90;;;;;;5100544;27;20046;-84
2022/01/30 04:34:08;;;;;;;6.30;2.33;;;5.10;99.90;;;;;;5100760;27;20492;-84
2022/01/30 04:36:39;;;;;;;28.05;2.47;;;5.20;99.90;;;;;;5100205;27;20045;-83
2022/01/30 04:39:32;;;;;;;15.43;2.38;;;5.20;99.90;;;;;;5100425;27;20039;-83
2022/01/30 04:52:54;;;;;;;21.40;3.47;;;5.30;99.90;;;;;;5117399;27;20046;-83
2022/01/30 04:58:26;;;;;;;19.65;4.20;;;5.30;99.90;;;;;;5117008;27;20039;-83
2022/01/30 05:00:56;;;;;;;6.40;1.73;;;5.30;99.90;;;;;;5114835;27;20046;-83
2022/01/30 05:06:01;;;;;;;17.42;3.33;;;5.20;99.90;;;;;;5100494;27;20039;-83
2022/01/30 05:08:27;;;;;;;12.65;1.58;;;5.20;99.90;;;;;;5099945;27;20035;-83
2022/01/30 05:10:53;;;;;;;12.30;2.88;;;5.20;99.90;;;;;;5116786;27;20534;-84
2022/01/30 05:13:23;;;;;;;11.07;2.88;;;5.30;99.90;;;;;;5100019;27;20031;-84
2022/01/30 05:15:49;;;;;;;12.02;1.90;;;5.30;99.90;;;;;;5099738;27;20035;-84
2022/01/30 05:18:25;;;;;;;18.45;2.75;;;5.20;99.90;;;;;;5099274;27;20038;-84
2022/01/30 05:20:51;;;;;;;9.30;2.42;;;5.20;99.90;;;;;;5099758;27;20047;-84
2022/01/30 05:23:17;;;;;;;6.85;2.53;;;5.20;99.90;;;;;;5117029;27;20114;-83
2022/01/30 05:25:45;;;;;;;12.18;2.45;;;5.20;99.90;;;;;;5099519;27;20047;-84
2022/01/30 05:28:14;;;;;;;21.88;3.35;;;5.20;99.90;;;;;;5099071;27;20090;-83
2022/01/30 05:30:39;;;;;;;10.35;2.35;;;5.20;99.90;;;;;;5116503;27;20411;-84
2022/01/30 05:33:05;;;;;;;10.70;2.22;;;5.10;99.90;;;;;;5099656;27;20035;-83
2022/01/30 05:35:31;;;;;;;14.85;3.53;;;5.10;99.90;;;;;;5098531;27;20035;-84
2022/01/30 05:37:57;;;;;;;5.78;1.80;;;5.10;99.90;;;;;;5099299;27;20518;-83
2022/01/30 05:40:24;;;;;;;11.68;2.15;;;5.10;99.90;;;;;;5099159;27;20038;-83
2022/01/30 05:42:50;;;;;;;6.82;1.92;;;5.10;99.90;;;;;;5099173;27;20130;-83
2022/01/30 05:45:28;;;;;;;20.25;3.42;;;5.80;99.90;;;;;;5099247;27;20054;-83
2022/01/30 05:48:01;;;;;;;3.70;1.42;;;5.00;99.90;;;;;;5098804;27;20093;-83
2022/01/30 05:50:28;;;;;;;8.55;2.45;;;5.00;99.90;;;;;;5099195;27;20495;-83
2022/01/30 05:52:53;;;;;;;15.05;6.40;;;5.00;99.90;;;;;;5099127;27;20450;-83
2022/01/30 05:55:19;;;;;;;18.58;2.85;;;5.00;99.90;;;;;;5099026;27;20047;-83
2022/01/30 05:57:45;;;;;;;16.63;2.08;;;5.20;99.90;;;;;;5098729;27;20043;-83
2022/01/30 06:00:13;;;;;;;9.60;2.17;;;5.10;99.90;;;;;;5098990;27;20078;-83
2022/01/30 06:02:44;;;;;;;12.07;2.35;;;5.00;99.90;;;;;;5115876;27;20051;-84
2022/01/30 06:05:10;;;;;;;9.98;2.55;;;5.00;99.90;;;;;;5098985;27;20035;-83
2022/01/30 06:07:45;;;;;;;30.52;4.63;;;4.90;99.90;;;;;;5098442;27;20043;-83
2022/01/30 06:10:11;;;;;;;;;;;5.00;99.90;;;;;;5099104;27;20411;-83
2022/01/30 06:12:38;;;;;;;24.15;3.30;;;5.10;99.90;;;;;;5099174;27;19922;-83
2022/01/30 06:15:03;;;;;;;23.35;3.45;;;5.00;99.90;;;;;;5133351;27;20065;-83
2022/01/30 06:17:29;;;;;;;31.40;4.75;;;5.00;99.90;;;;;;5098311;27;20423;-83
2022/01/30 06:19:55;;;;;;;30.33;4.93;;;5.00;99.90;;;;;;5098792;28;20035;-83
2022/01/30 06:22:20;;;;;;;15.13;3.25;;;5.00;99.90;;;;;;5098494;27;20050;-83
2022/01/30 06:24:46;;;;;;;12.88;2.95;;;5.70;99.90;;;;;;5098675;28;20071;-83
2022/01/30 06:27:11;;;;;;;21.08;3.38;;;4.80;99.90;;;;;;5098671;28;20053;-83
2022/01/30 06:29:37;;;;;;;24.73;4.93;;;5.00;99.90;;;;;;5098595;28;20031;-83
2022/01/30 06:32:02;;;;;;;23.15;3.15;;;5.10;99.90;;;;;;5098591;28;20035;-83
2022/01/30 06:34:28;;;;;;;12.20;2.95;;;5.00;99.90;;;;;;5115556;28;20043;-83
2022/01/30 06:36:55;;;;;;;15.20;4.18;;;5.00;99.90;;;;;;5098434;28;20134;-84
2022/01/30 06:39:21;;;;;;;9.60;4.05;;;4.90;99.90;;;;;;5098362;28;20043;-83
2022/01/30 06:41:46;;;;;;;14.07;3.38;;;4.80;99.90;;;;;;5098482;28;20046;-84
2022/01/30 06:44:12;;;;;;;8.13;1.67;;;4.90;99.90;;;;;;5098556;28;20043;-83
2022/01/30 06:46:38;;;;;;;25.85;3.38;;;4.90;99.90;;;;;;5100027;27;20551;-83
2022/01/30 06:49:04;;;;;;;19.90;3.65;;;5.00;99.90;;;;;;5102616;27;20038;-83
2022/01/30 06:51:29;;;;;;;15.57;2.42;;;5.00;99.90;;;;;;5102713;27;20039;-83
2022/01/30 06:53:55;;;;;;;4.88;1.92;;;5.00;99.90;;;;;;5102424;27;20043;-84
2022/01/30 06:56:20;;;;;;;14.90;3.58;;;5.00;99.90;;;;;;5102371;27;20065;-84
2022/01/30 06:58:46;;;;;;;11.57;2.30;;;5.10;99.90;;;;;;5102403;27;20053;-83
2022/01/30 07:01:11;;;;;;;16.38;2.50;;;5.10;99.90;;;;;;5119342;27;20043;-83
2022/01/30 07:03:37;;;;;;;5.38;1.90;;;5.00;99.90;;;;;;5119604;27;20039;-84
2022/01/30 07:06:02;;;;;;;10.93;2.20;;;5.00;99.90;;;;;;5119011;27;20042;-84
2022/01/30 07:08:28;;;;;;;11.10;2.08;;;5.00;99.90;;;;;;5102040;27;20045;-83
2022/01/30 07:10:53;;;;;;;12.52;2.97;;;5.40;99.90;;;;;;5119167;27;20066;-83
2022/01/30 07:13:19;;;;;;;13.05;3.90;;;5.10;99.90;;;;;;5102436;27;20468;-83
2022/01/30 07:15:44;;;;;;;12.65;2.28;;;5.10;99.90;;;;;;5102391;27;20039;-83
2022/01/30 07:18:10;;;;;;;8.38;2.72;;;5.20;99.90;;;;;;5101587;27;20091;-83
2022/01/30 07:20:36;;;;;;;7.35;1.95;;;5.20;99.90;;;;;;5102042;27;20074;-83
2022/01/30 07:23:01;;;;;;;12.40;2.08;;;5.30;99.90;;;;;;5101790;27;20050;-83
2022/01/30 07:25:27;;;;;;;20.95;4.60;;;5.30;99.90;;;;;;5101869;27;20031;-83
2022/01/30 07:27:52;;;;;;;18.10;2.90;;;5.40;99.90;;;;;;5118526;27;20067;-84
2022/01/30 07:30:18;;;;;;;10.07;1.40;;;5.40;99.90;;;;;;5101594;27;20035;-83
2022/01/30 07:32:43;;;;;;;19.02;2.17;;;5.40;99.90;;;;;;5118879;27;20042;-83
2022/01/30 07:35:09;;;;;;;17.13;3.55;;;5.60;99.90;;;;;;5101728;27;20039;-84
2022/01/30 07:37:35;;;;;;;13.25;2.78;;;5.50;99.90;;;;;;5101141;27;20487;-83
2022/01/30 07:40:02;;;;;;;14.85;2.28;;;5.40;99.90;;;;;;5101307;27;20049;-84
2022/01/30 07:42:28;;;;;;;37.00;3.63;;;5.40;99.90;;;;;;5101566;27;20039;-83
2022/01/30 07:44:54;;;;;;;10.88;2.08;;;5.40;99.90;;;;;;5101578;27;20488;-83
2022/01/30 07:47:22;;;;;;;17.25;2.40;;;5.40;99.90;;;;;;5118351;27;20120;-84
2022/01/30 07:49:51;;;;;;;21.25;5.32;;;5.50;99.90;;;;;;5101249;27;20118;-84
2022/01/30 07:52:18;;;;;;;24.30;4.85;;;5.40;99.90;;;;;;5101483;27;20487;-84
2022/01/30 07:54:44;;;;;;;22.83;4.45;;;5.40;99.90;;;;;;5101208;27;20518;-84
2022/01/30 07:57:10;;;;;;;13.93;2.38;;;5.50;99.90;;;;;;5100443;27;20039;-83
2022/01/30 07:59:35;;;;;;;21.58;3.67;;;5.40;99.90;;;;;;5118029;27;20027;-83
2022/01/30 08:02:01;;;;;;;26.33;3.25;;;5.40;99.90;;;;;;5118110;27;20055;-83
2022/01/30 08:04:28;;;;;;;17.02;2.95;;;5.30;99.90;;;;;;5101174;27;20031;-83
2022/01/30 08:06:54;;;;;;;13.15;2.08;;;5.50;99.90;;;;;;5117693;27;20047;-83
2022/01/30 08:09:19;;;;;;;12.13;2.58;;;5.50;99.90;;;;;;5101179;27;20031;-83
2022/01/30 08:11:45;;;;;;;6.05;2.10;;;5.40;99.90;;;;;;5101051;27;20035;-84
2022/01/30 08:14:12;;;;;;;25.52;3.58;;;5.50;99.90;;;;;;5084132;27;20074;-83
2022/01/30 08:16:38;;;;;;;10.95;1.58;;;5.50;99.90;;;;;;5117542;27;20531;-83
2022/01/30 08:19:03;;;;;;;15.25;4.22;;;5.40;99.90;;;;;;5100770;27;20449;-84
2022/01/30 08:21:29;;;;;;;15.50;3.50;;;5.50;99.90;;;;;;5117671;27;20046;-83
2022/01/30 08:23:55;;;;;;;12.25;3.10;;;5.50;99.90;;;;;;5100971;27;20444;-83
2022/01/30 08:26:20;;;;;;;20.20;2.92;;;5.70;99.90;;;;;;5100339;27;20049;-83
2022/01/30 08:28:46;;;;;;;16.27;5.13;;;5.70;99.90;;;;;;5100956;27;20031;-84
2022/01/30 08:31:11;;;;;;;32.47;4.70;;;5.60;99.90;;;;;;5100617;27;20043;-83
2022/01/30 08:33:37;;;;;;;28.33;4.60;;;5.60;99.90;;;;;;5100622;27;20046;-83
2022/01/30 08:36:03;;;;;;;27.50;6.35;;;5.60;99.90;;;;;;5100566;27;20039;-84
2022/01/30 08:38:28;;;;;;;24.23;4.22;;;5.70;99.90;;;;;;5100336;27;20035;-83
2022/01/30 08:40:54;;;;;;;40.33;5.72;;;5.70;99.90;;;;;;5100430;27;20499;-83
2022/01/30 08:43:21;;;;;;;27.65;4.22;;;5.70;99.90;;;;;;5117461;27;20034;-83
2022/01/30 08:45:49;;;;;;;37.60;4.93;;;5.80;99.90;;;;;;5100387;27;20399;-83
2022/01/30 08:48:15;;;;;;;16.85;3.83;;;5.80;99.90;;;;;;5099696;27;20422;-83
2022/01/30 08:50:40;;;;;;;39.15;6.00;;;5.70;99.90;;;;;;5117318;27;20042;-84
2022/01/30 08:53:06;;;;;;;17.63;3.80;;;5.70;99.90;;;;;;5100525;27;20398;-83
2022/01/30 08:55:33;;;;;;;15.80;3.95;;;5.60;99.90;;;;;;5100404;27;20138;-83
2022/01/30 08:58:00;;;;;;;9.82;2.00;;;5.70;99.90;;;;;;5099860;27;20043;-84
2022/01/30 09:00:25;;;;;;;27.35;4.40;;;5.80;99.90;;;;;;5117111;27;20047;-83
2022/01/30 09:02:51;;;;;;;17.67;2.45;;;5.70;99.90;;;;;;5098109;27;20035;-84
2022/01/30 09:05:24;;;;;;;30.70;4.40;;;5.60;99.90;;;;;;5099222;27;20035;-84
2022/01/30 09:07:49;;;;;;;15.55;2.65;;;5.60;99.90;;;;;;5098962;27;20035;-83
2022/01/30 09:10:15;;;;;;;14.95;2.72;;;5.60;99.90;;;;;;5103853;27;20399;-83
2022/01/30 09:12:41;;;;;;;32.65;6.38;;;5.60;99.90;;;;;;5106692;27;20046;-83
2022/01/30 09:15:10;;;;;;;22.13;3.90;;;5.60;99.90;;;;;;5099078;27;20083;-84
2022/01/30 09:17:36;;;;;;;27.77;3.22;;;5.80;99.90;;;;;;5115536;27;20500;-84
2022/01/30 09:20:03;;;;;;;29.98;4.50;;;5.90;99.90;;;;;;5115911;27;20108;-84
2022/01/30 09:22:29;;;;;;;19.73;3.72;;;6.00;99.90;;;;;;5098682;27;20039;-83
2022/01/30 09:24:54;;;;;;;33.47;4.57;;;6.00;99.90;;;;;;5098674;27;20087;-84
2022/01/30 09:27:20;;;;;;;26.83;4.55;;;5.90;99.90;;;;;;5098525;27;20046;-84
2022/01/30 09:29:46;;;;;;;40.40;5.72;;;5.70;99.90;;;;;;5099054;27;20105;-84
2022/01/30 09:32:12;;;;;;;31.00;4.78;;;5.70;99.90;;;;;;5098820;27;20427;-83
2022/01/30 09:34:38;;;;;;;32.80;5.00;;;5.70;99.90;;;;;;5098485;27;20031;-83
2022/01/30 09:37:05;;;;;;;23.10;5.00;;;5.80;99.90;;;;;;5119575;27;20405;-83
2022/01/30 09:39:31;;;;;;;21.73;4.15;;;5.80;99.90;;;;;;5098444;27;20042;-83
2022/01/30 09:41:57;;;;;;;20.45;5.40;;;5.80;99.90;;;;;;5098663;27;20035;-84
2022/01/30 09:44:23;;;;;;;30.67;4.78;;;5.90;99.90;;;;;;5098811;27;20035;-83
2022/01/30 09:46:50;;;;;;;29.75;4.60;;;5.90;99.90;;;;;;5098207;27;20118;-83
2022/01/30 09:49:20;;;;;;;18.75;3.03;;;5.90;99.90;;;;;;5098438;27;20575;-83
2022/01/30 09:51:46;;;;;;;13.32;3.67;;;6.00;99.90;;;;;;5098602;27;20039;-84
2022/01/30 09:54:12;;;;;;;15.43;3.35;;;6.00;99.90;;;;;;5098480;27;20035;-84
2022/01/30 09:56:39;;;;;;;14.48;4.47;;;6.00;99.90;;;;;;5114994;27;20448;-84
2022/01/30 09:59:05;;;;;;;15.80;2.58;;;6.10;99.90;;;;;;5102563;28;20035;-84
2022/01/30 10:01:35;;;;;;;8.07;1.55;;;6.20;99.90;;;;;;5102518;27;20039;-84
2022/01/30 10:04:08;;;;;;;11.68;2.28;;;6.20;99.90;;;;;;5098540;27;20039;-84
2022/01/30 10:07:00;;;;;;;11.57;2.85;;;6.20;99.90;;;;;;5098723;27;20090;-84
2022/01/30 10:09:29;;;;;;;2.40;1.35;;;6.30;99.90;;;;;;5098292;27;20147;-84
2022/01/30 10:12:13;;;;;;;30.13;3.22;;;6.30;99.90;;;;;;5098118;27;20039;-84
2022/01/30 10:14:54;;;;;;;11.88;2.40;;;6.40;99.90;;;;;;5082860;27;20039;-83
2022/01/30 10:17:39;;;;;;;14.50;2.85;;;6.50;99.90;;;;;;5094343;28;20039;-84
2022/01/30 10:20:17;;;;;;;8.67;2.97;;;6.50;99.90;;;;;;5090083;27;20049;-84
2022/01/30 10:23:01;;;;;;;14.63;2.55;;;6.60;99.90;;;;;;5104167;27;20300;-84
2022/01/30 10:25:35;;;;;;;15.00;2.90;;;6.70;99.90;;;;;;5117614;27;20041;-84
2022/01/30 10:28:11;;;;;;;9.18;1.85;;;6.80;99.90;;;;;;5118107;27;20137;-84
2022/01/30 10:30:46;;;;;;;4.38;1.70;;;6.90;99.90;;;;;;5118278;27;20117;-84
2022/01/30 10:33:14;;;;;;;8.27;2.95;;;7.00;99.90;;;;;;5118437;27;20187;-84
2022/01/30 10:35:45;;;;;;;10.20;2.78;;;7.00;99.90;;;;;;5111532;28;20032;-84
2022/01/30 10:38:18;;;;;;;12.90;2.88;;;6.90;99.90;;;;;;5097518;28;20039;-84
2022/01/30 10:41:11;;;;;;;15.75;4.07;;;6.80;99.90;;;;;;5098048;28;20039;-84
2022/01/30 10:43:49;;;;;;;10.45;4.00;;;6.80;99.90;;;;;;5114813;28;20039;-84
2022/01/30 10:46:27;;;;;;;7.07;2.13;;;6.90;99.90;;;;;;5110317;27;20043;-84
2022/01/30 10:49:00;;;;;;;5.90;1.45;;;6.80;99.90;;;;;;5117298;27;20027;-84
2022/01/30 10:51:33;;;;;;;26.83;5.22;;;6.80;99.90;;;;;;5077479;28;20051;-84
2022/01/30 10:54:11;;;;;;;11.10;2.80;;;6.70;99.90;;;;;;5077559;28;20134;-84
2022/01/30 10:56:38;;;;;;;30.90;4.88;;;6.60;99.90;;;;;;5076937;28;20047;-84
2022/01/30 10:59:20;;;;;;;14.52;2.67;;;6.60;99.90;;;;;;5077247;28;20064;-84
2022/01/30 11:01:51;;;;;;;38.53;5.28;;;6.60;99.90;;;;;;5077563;28;20103;-84
2022/01/30 11:04:39;;;;;;;12.43;3.13;;;6.60;99.90;;;;;;5077449;28;20404;-84
2022/01/30 11:07:05;;;;;;;12.95;3.08;;;6.70;99.90;;;;;;5090151;28;20448;-84
2022/01/30 11:09:36;;;;;;;24.98;3.53;;;6.60;99.90;;;;;;5098093;27;20064;-83
2022/01/30 11:12:06;;;;;;;7.78;1.85;;;6.70;99.90;;;;;;5114081;27;20086;-84
2022/01/30 11:15:17;;;;;;;11.60;2.58;;;6.80;99.90;;;;;;5134910;27;20047;-84
2022/01/30 11:17:26;;;;;;;17.27;3.22;;;7.00;99.90;;;;;;5129861;27;20102;-84
2022/01/30 11:19:53;;;;;;;20.83;3.30;;;7.00;99.90;;;;;;5118164;27;20085;-84
2022/01/30 11:22:21;;;;;;;16.30;4.30;;;6.90;99.90;;;;;;5117563;27;20039;-84
2022/01/30 11:24:49;;;;;;;12.85;2.72;;;7.10;99.90;;;;;;5117940;27;20072;-84
2022/01/30 11:27:17;;;;;;;7.30;1.73;;;7.10;99.90;;;;;;5099052;28;20039;-84
2022/01/30 11:29:44;;;;;;;16.48;3.42;;;7.20;99.90;;;;;;5097497;28;20395;-84
2022/01/30 11:32:14;;;;;;;12.50;2.30;;;7.20;99.90;;;;;;5102717;27;20050;-84
2022/01/30 11:34:41;;;;;;;19.88;3.70;;;7.00;99.90;;;;;;5112738;27;20026;-84
2022/01/30 11:37:09;;;;;;;18.77;3.53;;;7.00;99.90;;;;;;5121007;27;20376;-84
2022/01/30 11:39:37;;;;;;;30.48;2.95;;;6.90;99.90;;;;;;5121517;27;20415;-84
2022/01/30 11:42:09;;;;;;;57.05;5.00;;;7.00;99.90;;;;;;5121277;27;20035;-84
2022/01/30 11:44:35;;;;;;;10.98;2.15;;;6.90;99.90;;;;;;5138478;27;20038;-84
2022/01/30 11:47:03;;;;;;;25.58;2.70;;;7.00;99.90;;;;;;5121080;27;20077;-84
2022/01/30 11:49:53;;;;;;;7.38;2.05;;;7.10;99.90;;;;;;5138437;27;20121;-84
2022/01/30 11:52:19;;;;;;;17.67;2.67;;;7.10;99.90;;;;;;5121172;27;20034;-84
2022/01/30 11:54:47;;;;;;;18.85;2.65;;;7.10;99.90;;;;;;5121249;27;20042;-83
2022/01/30 11:57:22;;;;;;;10.52;2.72;;;6.80;99.90;;;;;;5107938;27;20031;-84
2022/01/30 11:59:53;;;;;;;13.00;2.60;;;6.80;99.90;;;;;;5101882;27;20043;-84
2022/01/30 12:02:24;;;;;;;13.35;3.50;;;7.00;99.90;;;;;;5100388;27;20050;-84
2022/01/30 12:05:05;;;;;;;9.93;2.50;;;6.90;99.90;;;;;;5101033;27;20077;-84
2022/01/30 12:07:41;;;;;;;16.23;2.42;;;6.90;99.90;;;;;;5129829;27;20046;-83
2022/01/30 12:10:15;;;;;;;12.30;3.47;;;6.90;99.90;;;;;;5121072;27;20035;-84
2022/01/30 12:12:56;;;;;;;13.90;3.28;;;7.00;99.90;;;;;;5137946;27;20062;-84
2022/01/30 12:15:36;;;;;;;23.85;3.45;;;6.90;99.90;;;;;;5121027;27;20047;-84
2022/01/30 12:18:06;;;;;;;25.38;4.00;;;7.00;99.90;;;;;;5120384;27;20042;-84
2022/01/30 12:20:51;;;;;;;17.95;3.97;;;7.10;99.90;;;;;;5133440;27;20042;-84
2022/01/30 12:23:24;;;;;;;;;;;7.20;99.90;;;;;;5105833;27;20043;-84
2022/01/30 12:26:03;;;;;;;13.07;3.78;;;7.00;99.90;;;;;;5100134;27;19915;-84
2022/01/30 12:28:43;;;;;;;24.10;3.40;;;6.90;99.90;;;;;;5100169;27;20498;-84
2022/01/30 12:31:32;;;;;;;7.55;4.03;;;6.60;99.90;;;;;;5100168;27;20086;-84
2022/01/30 12:34:18;;;;;;;7.95;2.33;;;6.60;99.90;;;;;;5117095;27;20035;-84
2022/01/30 12:36:54;;;;;;;8.48;2.35;;;6.90;99.90;;;;;;5079636;28;20040;-84
2022/01/30 12:39:22;;;;;;;3.03;1.88;;;6.80;99.90;;;;;;5079216;28;20036;-84
2022/01/30 12:41:50;;;;;;;23.25;3.60;;;6.90;99.90;;;;;;5079669;28;20035;-84
2022/01/30 12:44:20;;;;;;;14.30;2.55;;;6.80;99.90;;;;;;5073512;27;20123;-84
2022/01/30 12:46:53;;;;;;;5.57;1.50;;;6.90;99.90;;;;;;5118615;27;20035;-84
2022/01/30 12:49:28;;;;;;;10.68;2.72;;;6.90;99.90;;;;;;5120386;27;20559;-83
2022/01/30 12:51:56;;;;;;;9.15;3.08;;;7.00;99.90;;;;;;5120345;27;20102;-84
2022/01/30 12:54:23;;;;;;;6.57;2.53;;;7.00;99.90;;;;;;5120330;27;20458;-84
2022/01/30 12:56:52;;;;;;;7.10;2.95;;;7.00;99.90;;;;;;5119538;27;20039;-84
2022/01/30 12:59:18;;;;;;;10.13;2.13;;;7.10;99.90;;;;;;5119937;27;20161;-84
2022/01/30 13:01:46;;;;;;;13.68;1.92;;;7.20;99.90;;;;;;5119836;27;20035;-84
2022/01/30 13:04:13;;;;;;;8.32;2.75;;;7.10;99.90;;;;;;5119962;27;20053;-84
2022/01/30 13:06:42;;;;;;;10.60;2.22;;;7.10;99.90;;;;;;5117514;27;20030;-84
2022/01/30 13:09:08;;;;;;;21.20;4.57;;;7.10;99.90;;;;;;5103281;27;20426;-84
2022/01/30 13:11:34;;;;;;;16.35;2.90;;;7.10;99.90;;;;;;5099180;27;20035;-84
2022/01/30 13:14:06;;;;;;;4.93;1.48;;;7.10;99.90;;;;;;5099233;27;20042;-84
2022/01/30 13:16:35;;;;;;;16.52;3.03;;;7.10;99.90;;;;;;5098785;27;20415;-84
2022/01/30 13:19:02;;;;;;;8.38;2.30;;;7.10;99.90;;;;;;5099137;27;20043;-84
2022/01/30 13:21:31;;;;;;;26.85;3.90;;;7.20;99.90;;;;;;5098783;27;20039;-84
2022/01/30 13:23:58;;;;;;;6.55;1.60;;;7.20;99.90;;;;;;5098942;27;20035;-84
2022/01/30 13:26:27;;;;;;;9.35;1.83;;;7.20;99.90;;;;;;5098254;27;20043;-83
2022/01/30 13:28:53;;;;;;;6.07;1.40;;;7.20;99.90;;;;;;5098766;27;20046;-84
2022/01/30 13:31:18;;;;;;;9.10;2.92;;;7.20;99.90;;;;;;5106415;27;20404;-84
2022/01/30 13:33:44;;;;;;;13.63;3.20;;;7.30;99.90;;;;;;5123476;27;20050;-84
2022/01/30 13:36:22;;;;;;;6.22;1.70;;;7.20;99.90;;;;;;5103732;27;20046;-84
2022/01/30 13:38:48;;;;;;;4.38;1.92;;;7.20;99.90;;;;;;5098866;27;20038;-84
2022/01/30 13:41:26;;;;;;;9.02;2.72;;;7.20;99.90;;;;;;5098761;27;20039;-84